Haltom City, Texas
Current Conditions -  °F | °C
As of 1:53 PM on Sunday 23 Nov 2014 (Local Time) from KFTW Reporting Station
Clear Clear  
Wind Chill: 26°   Ceiling: Unl
Heat Index: 26°   Visibility: 10mi
Dew Point:   Wind: 22mph
Humidity: 25%   Direction: 270°W
Pressure: 29.39"   Gusts: 28mph
Location:  32.81°N, 97.27°W
Report Text: KFTW 231953Z 27019G24KT 10SM CLR 26/04 A2939 RMK AO2 PK WND 27026/1941 SLP945 T02560039
Loading
Personal Weather Stations






























Interactive Weather Map New forecast layout! Learn more

10-Day Weather Forecast

Advertisements
Track Severe Weather on mobile